Time;durP1;ratioP1;P1;durP2;ratioP2;P2;SDS_P1;SDS_P2;PMS_P1;PMS_P2;Temp;Humidity;BMP_temperature;BMP_pressure;BME280_temperature;BME280_humidity;BME280_pressure;Samples;Min_cycle;Max_cycle;Signal;HPM_P1;HPM_P2
2021/12/12 00:00:28;;;;;;;2.70;1.63;;;;;;;8.58;67.28;92397.06;4929493;28;20113;-75
2021/12/12 00:03:00;;;;;;;9.18;4.93;;;;;;;8.49;66.58;92371.78;4935558;28;20054;-74
2021/12/12 00:05:37;;;;;;;24.25;9.45;;;;;;;8.45;66.99;92374.34;4947082;28;20630;-75
2021/12/12 00:08:04;;;;;;;14.75;8.32;;;;;;;8.42;67.72;92396.19;4939072;28;20023;-75
2021/12/12 00:10:35;;;;;;;10.23;4.53;;;;;;;7.95;69.54;92429.53;4944542;28;20520;-74
2021/12/12 00:13:08;;;;;;;9.80;5.10;;;;;;;8.04;70.20;92444.19;4949772;28;20125;-75
2021/12/12 00:15:33;;;;;;;9.93;4.75;;;;;;;8.42;67.95;92425.31;4955320;28;20031;-75
2021/12/12 00:17:59;;;;;;;4.32;3.38;;;;;;;8.65;66.75;92430.94;4954579;28;20049;-75
2021/12/12 00:20:29;;;;;;;6.30;4.05;;;;;;;8.63;66.84;92438.44;4955968;28;20034;-76
2021/12/12 00:22:59;;;;;;;8.18;3.70;;;;;;;8.59;66.80;92422.44;4955339;28;20058;-76
2021/12/12 00:25:31;;;;;;;6.70;3.88;;;;;;;8.59;66.47;92413.72;4952090;28;20038;-75
2021/12/12 00:27:58;;;;;;;6.28;3.38;;;;;;;8.98;64.68;92450.09;4956187;28;20077;-75
2021/12/12 00:30:23;;;;;;;11.30;5.80;;;;;;;8.89;65.01;92456.63;4951010;28;20533;-75
2021/12/12 00:32:50;;;;;;;5.90;3.95;;;;;;;8.68;65.27;92456.00;4954931;28;20074;-75
2021/12/12 00:35:17;;;;;;;7.88;4.90;;;;;;;8.70;66.23;92475.00;4943276;28;20636;-75
2021/12/12 00:37:43;;;;;;;5.80;2.95;;;;;;;8.79;65.70;92457.88;4954404;28;20121;-75
2021/12/12 00:40:31;;;;;;;8.45;4.70;;;;;;;9.08;64.49;92470.06;4934793;28;20581;-75
2021/12/12 00:43:01;;;;;;;8.10;4.45;;;;;;;9.08;63.93;92475.38;4946824;28;20050;-75
2021/12/12 00:45:28;;;;;;;6.18;4.22;;;;;;;9.03;64.31;92481.69;4954180;28;20554;-74
2021/12/12 00:47:54;;;;;;;4.25;3.13;;;;;;;9.11;63.12;92481.88;4953807;28;20058;-75
2021/12/12 00:50:29;;;;;;;7.57;3.42;;;;;;;9.04;63.65;92493.06;4953395;28;20721;-76
2021/12/12 00:53:00;;;;;;;7.80;4.75;;;;;;;8.55;65.36;92490.47;4951266;28;20041;-75
2021/12/12 00:55:26;;;;;;;9.10;4.93;;;;;;;8.15;68.05;92492.22;4957345;28;20085;-74
2021/12/12 00:57:58;;;;;;;11.70;6.13;;;;;;;8.56;66.65;92510.53;4948495;28;20576;-75
2021/12/12 01:00:30;;;;;;;7.13;4.88;;;;;;;8.67;65.88;92512.75;4949548;28;20489;-75
2021/12/12 01:02:57;;;;;;;5.10;4.30;;;;;;;8.82;65.19;92512.09;4954245;28;20105;-75
2021/12/12 01:05:28;;;;;;;6.22;4.72;;;;;;;8.96;64.64;92507.97;4942409;28;20035;-75
2021/12/12 01:07:54;;;;;;;8.60;4.38;;;;;;;9.04;63.64;92506.31;4953505;28;20027;-75
2021/12/12 01:10:29;;;;;;;7.40;4.80;;;;;;;8.93;63.88;92491.97;4954577;28;20049;-75
2021/12/12 01:12:56;;;;;;;5.70;4.45;;;;;;;9.03;62.46;92500.25;4945369;28;20147;-75
2021/12/12 01:15:51;;;;;;;7.93;4.05;;;;;;;9.17;61.97;92505.22;4951051;28;20039;-75
2021/12/12 01:18:28;;;;;;;7.63;4.93;;;;;;;8.94;62.38;92528.00;4950074;28;20047;-75
2021/12/12 01:21:02;;;;;;;8.40;4.85;;;;;;;8.48;64.06;92510.66;4944540;28;20078;-75
2021/12/12 01:23:34;;;;;;;9.48;6.90;;;;;;;8.00;67.70;92524.63;4956275;28;20027;-75
2021/12/12 01:26:00;;;;;;;14.57;6.30;;;;;;;8.57;64.78;92541.25;4945651;28;20023;-75
2021/12/12 01:28:30;;;;;;;12.13;6.63;;;;;;;8.52;64.88;92522.91;4942644;28;20101;-76
2021/12/12 01:30:58;;;;;;;17.55;8.57;;;;;;;8.66;64.48;92533.19;4955356;28;20038;-75
2021/12/12 01:33:34;;;;;;;12.65;7.90;;;;;;;8.81;62.77;92535.16;4955200;28;20117;-76
2021/12/12 01:36:25;;;;;;;10.02;5.75;;;;;;;8.78;62.87;92519.94;4953597;28;20038;-75
2021/12/12 01:38:55;;;;;;;11.27;6.28;;;;;;;8.83;62.32;92516.28;4946377;28;20105;-75
2021/12/12 01:41:30;;;;;;;9.82;6.35;;;;;;;8.90;61.94;92513.88;4948963;28;20051;-75
2021/12/12 01:44:01;;;;;;;10.02;5.85;;;;;;;8.97;60.99;92500.81;4936156;28;20034;-76
2021/12/12 01:46:36;;;;;;;9.18;5.88;;;;;;;8.62;61.81;92497.06;4943634;28;20793;-76
2021/12/12 01:49:11;;;;;;;;;;;;;;;8.79;60.96;92528.66;4956959;28;20042;-75
2021/12/12 01:51:38;;;;;;;11.95;6.10;;;;;;;8.59;60.69;92512.56;4947442;28;20722;-75
2021/12/12 01:54:08;;;;;;;6.82;5.35;;;;;;;8.14;61.83;92515.25;4949836;28;20560;-75
2021/12/12 01:56:42;;;;;;;3.13;2.60;;;;;;;7.42;64.52;92536.94;4954730;28;20505;-75
2021/12/12 01:59:11;;;;;;;3.92;3.08;;;;;;;8.05;62.94;92554.31;4955123;28;20041;-74
2021/12/12 02:01:47;;;;;;;3.53;2.05;;;;;;;7.50;63.18;92559.13;4947111;28;20039;-75
2021/12/12 02:04:18;;;;;;;3.38;1.50;;;;;;;7.48;63.09;92538.31;4955031;28;20514;-75
2021/12/12 02:06:46;;;;;;;5.35;2.38;;;;;;;7.71;62.43;92562.53;4943183;28;20043;-75
2021/12/12 02:09:12;;;;;;;1.08;0.98;;;;;;;6.97;63.54;92523.59;4960036;28;20494;-75
2021/12/12 02:11:38;;;;;;;1.45;1.10;;;;;;;7.65;62.99;92569.13;4947550;28;20990;-75
2021/12/12 02:14:11;;;;;;;2.10;1.33;;;;;;;7.84;62.54;92561.50;4955801;28;20112;-75
2021/12/12 02:16:41;;;;;;;2.00;1.80;;;;;;;7.97;61.33;92549.84;4953768;28;20030;-75
2021/12/12 02:19:07;;;;;;;2.50;1.52;;;;;;;7.61;61.94;92515.31;4960251;28;20584;-75
2021/12/12 02:21:57;;;;;;;2.17;1.83;;;;;;;7.76;61.90;92537.78;4953332;28;20509;-76
2021/12/12 02:37:52;;;;;;;1.80;1.52;;;;;;;7.54;62.59;92579.31;4955910;28;20417;-75
2021/12/12 02:40:22;;;;;;;2.03;1.50;;;;;;;7.53;62.53;92577.75;4953359;28;20114;-75
2021/12/12 02:42:48;;;;;;;1.33;1.00;;;;;;;7.63;62.94;92585.31;4954834;28;20549;-75
2021/12/12 02:45:17;;;;;;;0.90;0.90;;;;;;;7.46;62.79;92577.53;4955738;28;20030;-75
2021/12/12 02:47:45;;;;;;;1.65;1.33;;;;;;;7.55;62.87;92580.88;4956663;28;20552;-76
2021/12/12 02:50:18;;;;;;;1.52;1.17;;;;;;;7.88;62.16;92593.38;4955546;28;20023;-75
2021/12/12 02:52:50;;;;;;;2.45;1.85;;;;;;;7.95;61.25;92599.72;4952557;28;20137;-75
2021/12/12 02:55:29;;;;;;;5.00;2.20;;;;;;;7.99;61.21;92597.19;4950701;28;20585;-75
2021/12/12 02:58:02;;;;;;;6.93;2.53;;;;;;;7.82;61.41;92569.03;4938298;28;20137;-74
2021/12/12 03:00:32;;;;;;;3.15;1.60;;;;;;;7.94;61.02;92586.78;4956379;28;20446;-75
2021/12/12 03:03:00;;;;;;;1.85;1.50;;;;;;;8.05;60.86;92593.25;4957508;28;20133;-75
2021/12/12 03:05:31;;;;;;;5.10;1.85;;;;;;;8.02;61.41;92609.78;4953891;28;20023;-75
2021/12/12 03:07:57;;;;;;;2.03;1.55;;;;;;;7.96;61.33;92601.28;4956016;28;20027;-75
2021/12/12 03:10:34;;;;;;;4.45;1.50;;;;;;;7.91;61.19;92598.81;4951595;28;20035;-75
2021/12/12 03:13:00;;;;;;;1.35;1.25;;;;;;;7.89;61.31;92597.59;4957892;28;20062;-74
2021/12/12 03:15:29;;;;;;;1.73;1.40;;;;;;;8.08;61.76;92619.06;4948290;28;20045;-75
2021/12/12 03:17:59;;;;;;;3.50;1.45;;;;;;;7.63;61.90;92561.50;4948527;28;20065;-75
2021/12/12 03:20:32;;;;;;;2.80;1.38;;;;;;;8.05;61.19;92607.25;4950900;28;20117;-76
2021/12/12 03:23:09;;;;;;;1.88;1.30;;;;;;;8.05;61.18;92598.53;4954115;28;20026;-75
2021/12/12 03:25:39;;;;;;;1.00;1.00;;;;;;;8.28;60.93;92625.41;4952805;28;20043;-75
2021/12/12 03:28:06;;;;;;;2.53;1.40;;;;;;;8.36;60.99;92635.94;4953301;28;20034;-75
2021/12/12 03:30:33;;;;;;;4.18;1.70;;;;;;;8.30;60.30;92637.25;4951648;28;20035;-75
2021/12/12 03:32:58;;;;;;;3.42;1.20;;;;;;;8.41;60.13;92643.66;4952914;28;20463;-75
2021/12/12 03:35:24;;;;;;;2.10;1.25;;;;;;;8.24;60.06;92620.00;4954776;28;20057;-76
2021/12/12 03:37:49;;;;;;;4.50;2.55;;;;;;;7.96;61.51;92648.94;4953713;28;20046;-75
2021/12/12 03:40:25;;;;;;;6.60;4.38;;;;;;;7.07;66.07;92675.75;4955475;28;20330;-75
2021/12/12 03:42:54;;;;;;;7.00;4.75;;;;;;;6.84;66.86;92675.25;4932204;28;20039;-75
2021/12/12 03:45:21;;;;;;;7.22;5.00;;;;;;;5.78;70.06;92678.63;4957047;28;20042;-75
2021/12/12 03:47:54;;;;;;;4.97;4.50;;;;;;;5.51;72.67;92695.53;4954385;28;20556;-75
2021/12/12 03:50:25;;;;;;;5.95;5.05;;;;;;;5.36;73.66;92706.50;4958401;28;20061;-75
2021/12/12 03:52:51;;;;;;;7.57;4.97;;;;;;;5.08;73.60;92653.25;4949751;28;20310;-75
2021/12/12 03:55:18;;;;;;;6.93;5.28;;;;;;;5.41;73.97;92715.06;4947830;28;20449;-75
2021/12/12 03:57:47;;;;;;;8.25;6.50;;;;;;;5.61;73.63;92713.69;4951207;28;20122;-75
2021/12/12 04:00:37;;;;;;;7.97;5.60;;;;;;;6.00;71.43;92697.75;4958672;28;20513;-77
2021/12/12 04:03:05;;;;;;;8.65;5.45;;;;;;;6.24;70.67;92722.91;4931491;28;20043;-76
2021/12/12 04:05:30;;;;;;;5.80;4.45;;;;;;;5.85;70.09;92710.63;4952420;28;20811;-76
2021/12/12 04:07:56;;;;;;;9.35;5.13;;;;;;;5.42;71.03;92697.38;4958866;28;20027;-77
2021/12/12 04:10:24;;;;;;;5.38;4.15;;;;;;;5.38;71.53;92696.44;4946844;28;20124;-76
2021/12/12 04:12:51;;;;;;;5.15;4.55;;;;;;;5.38;72.46;92733.34;4953054;28;20525;-77
2021/12/12 04:15:17;;;;;;;5.88;4.85;;;;;;;6.14;69.84;92739.03;4952943;28;20065;-76
2021/12/12 04:17:44;;;;;;;4.97;3.25;;;;;;;5.32;70.31;92729.28;4955358;28;20050;-77
2021/12/12 04:20:19;;;;;;;2.88;2.55;;;;;;;4.56;72.97;92766.28;4952784;28;20444;-77
2021/12/12 04:22:46;;;;;;;2.90;2.42;;;;;;;4.34;73.59;92782.09;4955614;28;20430;-75
2021/12/12 04:25:15;;;;;;;2.33;1.92;;;;;;;4.26;73.81;92780.91;4955197;28;20684;-74
2021/12/12 04:27:41;;;;;;;4.90;2.47;;;;;;;3.48;75.78;92754.25;4951829;28;20051;-75
2021/12/12 04:30:11;;;;;;;4.10;2.42;;;;;;;3.29;77.17;92770.88;4954423;28;20038;-74
2021/12/12 04:32:37;;;;;;;2.65;2.45;;;;;;;3.71;76.81;92779.53;4938639;28;20038;-74
2021/12/12 04:35:20;;;;;;;4.70;2.92;;;;;;;4.14;75.64;92804.38;4953898;28;20117;-74
2021/12/12 04:37:46;;;;;;;3.03;2.15;;;;;;;4.21;74.47;92791.56;4948128;28;20532;-75
2021/12/12 04:40:18;;;;;;;1.92;1.73;;;;;;;4.98;72.42;92799.25;4932877;28;20047;-75
2021/12/12 04:42:46;;;;;;;3.30;2.70;;;;;;;5.20;70.47;92795.75;4957513;28;20038;-75
2021/12/12 04:45:43;;;;;;;2.83;2.47;;;;;;;5.57;68.98;92810.34;4944913;28;20130;-75
2021/12/12 04:51:15;;;;;;;2.33;2.10;;;;;;;5.68;67.42;92822.16;4951585;28;20441;-75
2021/12/12 04:54:30;;;;;;;1.88;1.65;;;;;;;6.13;64.54;92843.84;4955357;28;20070;-75
2021/12/12 04:57:02;;;;;;;1.60;1.50;;;;;;;6.17;63.93;92833.47;4937873;28;20043;-75
2021/12/12 04:59:49;;;;;;;1.83;1.48;;;;;;;5.98;64.13;92821.31;4952661;28;20030;-75
2021/12/12 05:02:24;;;;;;;1.75;1.65;;;;;;;6.33;62.14;92842.50;4953833;28;20066;-75
2021/12/12 05:05:01;;;;;;;1.60;1.50;;;;;;;6.23;60.94;92854.13;4950919;28;20030;-75
2021/12/12 05:07:58;;;;;;;1.92;1.70;;;;;;;6.00;60.98;92850.81;4956539;28;20050;-75
2021/12/12 05:10:49;;;;;;;2.33;1.20;;;;;;;5.83;61.37;92853.38;4956164;28;20045;-75
2021/12/12 05:13:26;;;;;;;1.30;1.20;;;;;;;5.69;60.88;92844.81;4957446;28;20391;-75
2021/12/12 05:15:59;;;;;;;1.35;1.25;;;;;;;5.68;60.82;92843.25;4951760;28;20034;-75
2021/12/12 05:18:31;;;;;;;2.75;1.13;;;;;;;5.72;60.72;92854.00;4951108;28;20177;-75
2021/12/12 05:21:04;;;;;;;1.60;1.40;;;;;;;5.83;61.13;92871.88;4946882;28;20405;-75
2021/12/12 05:23:31;;;;;;;1.40;1.30;;;;;;;6.08;60.55;92896.00;4952335;28;20069;-75
2021/12/12 05:25:56;;;;;;;2.25;1.67;;;;;;;5.85;61.13;92901.38;4948103;28;20409;-75
2021/12/12 05:28:30;;;;;;;4.57;1.67;;;;;;;5.94;60.86;92901.41;4946204;28;20039;-75
2021/12/12 05:30:58;;;;;;;1.23;1.10;;;;;;;5.94;60.34;92888.97;4954105;28;20059;-75
2021/12/12 05:33:24;;;;;;;1.10;1.10;;;;;;;5.71;59.98;92898.06;4938693;28;20146;-75
2021/12/12 05:35:50;;;;;;;1.00;1.00;;;;;;;5.36;59.34;92843.59;4955568;28;20038;-75
2021/12/12 05:38:16;;;;;;;1.20;1.10;;;;;;;5.48;58.94;92907.13;4956533;28;20031;-75
2021/12/12 05:40:45;;;;;;;1.40;1.30;;;;;;;5.26;59.00;92912.41;4950501;28;20478;-75
2021/12/12 05:43:13;;;;;;;1.45;1.02;;;;;;;5.15;59.25;92925.03;4956599;28;20062;-75
2021/12/12 05:45:38;;;;;;;1.05;1.05;;;;;;;4.94;59.76;92919.47;4957249;28;20082;-75
2021/12/12 05:48:06;;;;;;;2.13;1.10;;;;;;;4.70;60.86;92924.25;4958526;28;20114;-75
2021/12/12 05:50:33;;;;;;;1.23;1.10;;;;;;;4.64;60.79;92941.25;4956954;28;20038;-75
2021/12/12 05:52:59;;;;;;;1.50;1.40;;;;;;;4.37;61.45;92930.75;4959316;28;20313;-75
2021/12/12 05:55:28;;;;;;;1.13;1.10;;;;;;;4.58;61.19;92960.88;4957702;28;20564;-74
2021/12/12 05:57:56;;;;;;;2.35;1.20;;;;;;;4.53;61.18;92934.63;4955887;28;20166;-75
2021/12/12 06:00:35;;;;;;;1.17;1.10;;;;;;;4.71;60.97;92954.78;4959840;28;20038;-74
2021/12/12 06:03:01;;;;;;;1.42;1.33;;;;;;;4.52;60.92;92970.72;4959664;28;20042;-74
2021/12/12 06:05:30;;;;;;;1.60;1.30;;;;;;;4.43;61.75;92969.06;4958037;28;20573;-74
2021/12/12 06:07:57;;;;;;;2.63;1.20;;;;;;;3.77;62.55;92939.53;4957854;28;20282;-74
2021/12/12 06:10:24;;;;;;;1.30;1.27;;;;;;;4.14;62.47;92985.16;4957845;28;20035;-74
2021/12/12 06:12:51;;;;;;;1.33;1.23;;;;;;;3.74;62.63;92944.59;4960160;28;20047;-74
2021/12/12 06:15:20;;;;;;;1.40;1.30;;;;;;;3.60;63.35;92957.75;4955362;28;20046;-74
2021/12/12 06:17:48;;;;;;;1.58;1.48;;;;;;;3.85;63.76;92998.59;4958017;28;20039;-74
2021/12/12 06:20:15;;;;;;;1.67;1.40;;;;;;;3.97;63.26;92998.09;4960065;28;20118;-74
2021/12/12 06:22:41;;;;;;;1.58;1.48;;;;;;;3.81;63.03;92977.34;4950385;28;20038;-74
2021/12/12 06:25:08;;;;;;;1.45;1.35;;;;;;;3.70;62.95;92986.47;4957579;28;20417;-74
2021/12/12 06:27:34;;;;;;;1.70;1.60;;;;;;;3.59;63.34;92984.31;4940647;28;20510;-74
2021/12/12 06:30:00;;;;;;;3.22;1.25;;;;;;;3.39;63.57;93001.19;4956254;28;20098;-75
2021/12/12 06:32:26;;;;;;;2.72;1.92;;;;;;;3.39;63.96;93027.47;4953517;28;20029;-74
2021/12/12 06:34:55;;;;;;;2.15;1.52;;;;;;;3.48;63.95;93049.41;4958462;28;20019;-74
2021/12/12 06:37:22;;;;;;;1.52;1.42;;;;;;;3.52;63.62;93045.16;4957849;28;20045;-76
2021/12/12 06:39:49;;;;;;;2.30;2.08;;;;;;;3.28;63.84;93015.59;4958657;28;20050;-74
2021/12/12 06:42:14;;;;;;;3.30;1.80;;;;;;;3.35;64.11;93048.31;4940715;28;20038;-75
2021/12/12 06:44:42;;;;;;;1.40;1.30;;;;;;;3.16;63.97;93060.69;4955143;28;20479;-74
2021/12/12 06:47:10;;;;;;;1.65;1.55;;;;;;;3.10;64.44;93061.03;4956708;28;20073;-74
2021/12/12 06:49:37;;;;;;;1.67;1.50;;;;;;;3.06;64.29;93050.31;4958451;28;20616;-74
2021/12/12 06:52:05;;;;;;;1.63;1.50;;;;;;;2.97;64.10;93031.00;4954138;28;20054;-75
2021/12/12 06:54:31;;;;;;;2.65;1.45;;;;;;;3.08;64.21;93069.22;4954752;28;20062;-74
2021/12/12 06:57:00;;;;;;;1.45;1.35;;;;;;;2.83;64.54;93059.06;4952176;28;20039;-75
2021/12/12 06:59:34;;;;;;;2.90;1.92;;;;;;;2.85;65.34;93086.56;4954520;28;20109;-73
2021/12/12 07:02:00;;;;;;;2.45;2.25;;;;;;;2.83;65.33;93072.97;4958212;28;20074;-75
2021/12/12 07:04:29;;;;;;;1.50;1.40;;;;;;;2.63;65.17;93057.47;4936330;28;20154;-75
2021/12/12 07:07:00;;;;;;;3.90;1.48;;;;;;;2.51;65.39;93063.09;4958748;28;20041;-75
2021/12/12 07:09:30;;;;;;;1.55;1.40;;;;;;;2.60;65.85;93088.75;4941829;28;20152;-75
2021/12/12 07:11:58;;;;;;;3.05;2.35;;;;;;;2.33;65.96;93044.69;4955914;28;20046;-74
2021/12/12 07:14:25;;;;;;;4.22;2.95;;;;;;;2.55;66.44;93080.94;4959982;28;20033;-75
2021/12/12 07:16:50;;;;;;;2.63;1.60;;;;;;;2.78;66.62;93101.13;4947105;28;20149;-75
2021/12/12 07:19:17;;;;;;;3.03;2.10;;;;;;;2.84;66.58;93095.50;4959478;28;21577;-74
2021/12/12 07:21:44;;;;;;;3.08;1.75;;;;;;;2.86;66.22;93105.75;4950121;28;20045;-74
2021/12/12 07:24:09;;;;;;;1.60;1.50;;;;;;;2.63;65.93;93111.81;4955849;28;20057;-75
2021/12/12 07:26:35;;;;;;;1.95;1.75;;;;;;;2.68;66.63;93136.16;4954516;28;20635;-75
2021/12/12 07:29:02;;;;;;;2.63;1.80;;;;;;;2.66;66.34;93155.88;4955451;28;20027;-75
2021/12/12 07:31:32;;;;;;;1.95;1.80;;;;;;;2.44;66.44;93154.53;4957142;28;20066;-75
2021/12/12 07:34:02;;;;;;;1.67;1.45;;;;;;;2.50;66.64;93148.16;4932741;28;20030;-75
2021/12/12 07:36:31;;;;;;;2.45;2.00;;;;;;;2.30;66.29;93137.88;4957790;28;20196;-74
2021/12/12 07:39:04;;;;;;;1.42;1.33;;;;;;;2.07;66.92;93092.19;4951617;28;20035;-74
2021/12/12 07:41:32;;;;;;;1.77;1.58;;;;;;;2.25;67.49;93163.38;4931510;28;20708;-75
2021/12/12 07:43:59;;;;;;;2.13;1.45;;;;;;;2.13;67.97;93158.50;4951044;28;20126;-75
2021/12/12 07:46:26;;;;;;;2.42;1.85;;;;;;;1.87;68.63;93165.78;4946327;28;20039;-75
2021/12/12 07:48:54;;;;;;;1.88;1.58;;;;;;;2.14;69.11;93199.41;4936570;28;20047;-74
2021/12/12 07:51:24;;;;;;;1.55;1.45;;;;;;;2.13;68.55;93187.34;4935358;28;20432;-75
2021/12/12 07:53:53;;;;;;;1.40;1.30;;;;;;;2.22;68.04;93200.66;4930253;28;20340;-75
2021/12/12 07:56:24;;;;;;;2.10;1.90;;;;;;;2.26;67.99;93188.53;4937733;28;20054;-74
2021/12/12 07:58:50;;;;;;;3.55;2.33;;;;;;;2.25;67.45;93171.25;4934880;28;20031;-75
2021/12/12 08:01:16;;;;;;;3.67;2.00;;;;;;;2.13;67.45;93202.31;4933224;28;20106;-75
2021/12/12 08:03:43;;;;;;;1.90;1.75;;;;;;;2.12;68.08;93221.72;4928917;28;20097;-75
2021/12/12 08:06:13;;;;;;;2.58;1.98;;;;;;;2.15;67.70;93216.72;4936720;28;20051;-75
2021/12/12 08:08:40;;;;;;;2.08;1.73;;;;;;;2.05;68.18;93203.69;4928305;28;20039;-75
2021/12/12 08:11:06;;;;;;;1.90;1.80;;;;;;;2.21;67.73;93231.34;4933652;28;20534;-75
2021/12/12 08:13:32;;;;;;;3.38;2.15;;;;;;;1.96;67.90;93206.09;4932953;28;20130;-75
2021/12/12 08:16:00;;;;;;;4.60;4.15;;;;;;;2.18;67.82;93229.28;4926627;28;20403;-75
2021/12/12 08:18:26;;;;;;;3.88;3.55;;;;;;;2.16;68.43;93226.13;4932754;28;20036;-76
2021/12/12 08:20:52;;;;;;;2.55;2.35;;;;;;;2.16;67.93;93220.91;4932730;28;20616;-75
2021/12/12 08:23:20;;;;;;;4.45;3.03;;;;;;;2.07;68.13;93218.09;4935091;28;20494;-75
2021/12/12 08:25:48;;;;;;;3.70;2.85;;;;;;;2.01;67.99;93215.78;4934338;28;20048;-75
2021/12/12 08:28:16;;;;;;;6.20;3.03;;;;;;;2.05;68.40;93220.22;4948162;28;20039;-75
2021/12/12 08:30:43;;;;;;;4.22;3.10;;;;;;;2.13;68.52;93242.44;4934659;28;20094;-75
2021/12/12 08:33:09;;;;;;;3.15;2.38;;;;;;;2.17;68.09;93232.19;4930611;28;20533;-75
2021/12/12 08:35:36;;;;;;;3.53;2.85;;;;;;;2.12;68.28;93230.38;4932968;28;20046;-75
2021/12/12 08:38:05;;;;;;;3.28;2.40;;;;;;;2.33;67.87;93241.50;4932596;28;20505;-75
2021/12/12 08:40:34;;;;;;;4.10;2.67;;;;;;;2.18;67.54;93239.78;4949218;28;20051;-75
2021/12/12 08:43:00;;;;;;;3.65;2.50;;;;;;;2.20;67.90;93239.50;4945380;28;20597;-74
2021/12/12 08:45:29;;;;;;;4.45;4.00;;;;;;;2.02;68.62;93227.81;4951098;28;20102;-75
2021/12/12 08:47:58;;;;;;;5.93;2.88;;;;;;;1.99;68.39;93225.75;4951036;28;20157;-75
2021/12/12 08:50:26;;;;;;;4.28;3.10;;;;;;;2.21;69.00;93257.59;4950491;28;20118;-75
2021/12/12 08:52:52;;;;;;;4.13;2.78;;;;;;;2.26;68.58;93233.94;4952708;28;20034;-75
2021/12/12 08:55:30;;;;;;;3.75;3.45;;;;;;;2.30;68.65;93269.09;4950599;28;20078;-75
2021/12/12 08:58:03;;;;;;;3.55;3.05;;;;;;;2.46;68.17;93270.50;4953678;28;20039;-75
2021/12/12 09:00:35;;;;;;;4.00;2.03;;;;;;;2.45;67.91;93274.19;4935509;28;20436;-75
2021/12/12 09:03:01;;;;;;;3.08;2.60;;;;;;;2.15;68.16;93287.56;4950584;28;20039;-74
2021/12/12 09:05:30;;;;;;;3.72;2.72;;;;;;;2.16;67.61;93278.59;4951212;28;20118;-74
2021/12/12 09:08:05;;;;;;;4.70;2.92;;;;;;;2.04;67.48;93255.38;4953181;28;20049;-75
2021/12/12 09:10:39;;;;;;;3.58;2.67;;;;;;;1.89;67.65;93288.75;4930868;28;20042;-74
2021/12/12 09:13:12;;;;;;;3.38;2.33;;;;;;;1.95;68.07;93287.69;4954530;28;20100;-74
2021/12/12 09:15:43;;;;;;;3.00;2.40;;;;;;;1.88;68.50;93302.94;4949260;28;20085;-75
2021/12/12 09:18:16;;;;;;;3.60;2.78;;;;;;;1.77;68.86;93291.69;4953803;28;20576;-75
2021/12/12 09:20:58;;;;;;;4.55;3.50;;;;;;;1.68;69.27;93304.56;4952536;28;20069;-75
2021/12/12 09:23:34;;;;;;;5.70;3.70;;;;;;;1.70;69.28;93306.94;4955196;28;20464;-74
2021/12/12 09:26:12;;;;;;;4.50;3.17;;;;;;;1.76;69.51;93307.69;4952971;28;20027;-74
2021/12/12 09:29:00;;;;;;;3.67;3.22;;;;;;;1.54;69.31;93266.91;4954928;28;20465;-74
2021/12/12 09:31:31;;;;;;;5.03;4.28;;;;;;;1.82;69.12;93298.72;4954540;28;20518;-75
2021/12/12 09:33:59;;;;;;;4.78;4.13;;;;;;;2.08;68.65;93319.34;4958221;28;20052;-74
2021/12/12 09:36:31;;;;;;;3.38;3.00;;;;;;;2.14;67.96;93306.97;4951684;28;20374;-75
2021/12/12 09:39:07;;;;;;;3.22;2.70;;;;;;;2.38;66.89;93320.97;4953740;28;20134;-76
2021/12/12 09:41:58;;;;;;;3.80;2.67;;;;;;;2.18;67.03;93309.81;4947217;28;20047;-75
2021/12/12 09:44:52;;;;;;;3.05;2.35;;;;;;;2.17;66.86;93324.00;4951188;28;20037;-75
2021/12/12 09:48:00;;;;;;;4.32;2.95;;;;;;;2.09;67.33;93320.13;4955519;28;20042;-75
2021/12/12 09:51:15;;;;;;;2.95;2.65;;;;;;;2.27;67.95;93332.59;4957284;28;20026;-75
2021/12/12 09:54:14;;;;;;;2.85;2.65;;;;;;;2.42;66.64;93324.59;4891890;29;20052;-75
2021/12/12 09:57:07;;;;;;;2.78;2.38;;;;;;;2.44;66.46;93327.75;4951152;28;20472;-74
2021/12/12 09:59:58;;;;;;;3.08;2.88;;;;;;;2.59;65.11;93339.97;4956035;28;20062;-73
2021/12/12 10:02:29;;;;;;;3.13;2.53;;;;;;;2.48;65.20;93341.09;4955230;28;20034;-74
2021/12/12 10:05:12;;;;;;;3.92;2.35;;;;;;;2.32;65.67;93340.44;4954054;28;20089;-74
2021/12/12 10:08:15;;;;;;;2.88;2.47;;;;;;;2.48;65.11;93334.03;4939025;28;20089;-74
2021/12/12 10:10:52;;;;;;;8.88;3.97;;;;;;;2.22;65.29;93339.69;4951895;28;20536;-74
2021/12/12 10:13:38;;;;;;;4.70;3.95;;;;;;;2.48;64.91;93339.28;4956822;28;20728;-74
2021/12/12 10:16:22;;;;;;;3.70;3.00;;;;;;;2.40;64.31;93324.09;4932780;28;20042;-74
2021/12/12 10:18:47;;;;;;;3.92;3.33;;;;;;;2.55;64.76;93327.69;4955260;28;20037;-74
2021/12/12 10:21:25;;;;;;;2.88;2.60;;;;;;;2.59;64.50;93323.44;4954548;28;20042;-74
2021/12/12 10:24:20;;;;;;;5.00;2.97;;;;;;;2.64;64.44;93336.53;4954183;28;20043;-75
2021/12/12 10:26:59;;;;;;;3.35;2.65;;;;;;;2.63;64.26;93335.75;4944748;28;20085;-74
2021/12/12 10:29:30;;;;;;;11.38;6.68;;;;;;;2.55;63.93;93312.69;4946785;28;20322;-74
2021/12/12 10:32:24;;;;;;;9.32;6.20;;;;;;;2.70;64.63;93340.66;4944926;28;20035;-74
2021/12/12 10:34:59;;;;;;;8.00;6.65;;;;;;;2.82;64.18;93326.13;4953256;28;20626;-74
2021/12/12 10:37:45;;;;;;;9.23;5.60;;;;;;;2.44;64.06;93345.34;4949560;28;20042;-74
2021/12/12 10:40:18;;;;;;;5.15;3.88;;;;;;;2.47;64.89;93345.56;4955735;28;20055;-74
2021/12/12 10:42:52;;;;;;;4.63;4.05;;;;;;;2.63;64.79;93361.22;4953311;28;20453;-74
2021/12/12 10:45:22;;;;;;;7.63;4.45;;;;;;;2.84;64.42;93378.38;4956322;28;20719;-75
2021/12/12 10:48:00;;;;;;;9.25;4.75;;;;;;;3.14;63.80;93378.09;4947783;28;20038;-74
2021/12/12 10:50:56;;;;;;;6.03;4.82;;;;;;;2.77;64.01;93373.44;4956612;28;20034;-74
2021/12/12 10:53:37;;;;;;;14.25;5.43;;;;;;;2.98;64.06;93374.06;4950106;28;20871;-74
2021/12/12 10:56:18;;;;;;;6.45;4.75;;;;;;;3.22;63.58;93372.25;4952781;28;20436;-74
2021/12/12 10:58:47;;;;;;;19.17;8.75;;;;;;;3.03;64.04;93378.50;4940914;28;20050;-74
2021/12/12 11:01:16;;;;;;;13.50;8.65;;;;;;;3.10;63.85;93378.94;4946745;28;20046;-75
2021/12/12 11:03:51;;;;;;;25.52;10.88;;;;;;;3.43;63.46;93374.69;4958003;28;20077;-75
2021/12/12 11:06:22;;;;;;;;;;;;;;;3.27;61.78;93311.78;4949900;28;20051;-75
2021/12/12 11:09:20;;;;;;;7.53;4.55;;;;;;;3.38;62.25;93365.78;4950312;28;19922;-74
2021/12/12 11:11:55;;;;;;;4.85;3.60;;;;;;;3.79;60.57;93370.59;4950728;28;20043;-74
2021/12/12 11:14:30;;;;;;;4.23;2.30;;;;;;;3.77;59.45;93385.88;4937058;28;20034;-74
2021/12/12 11:17:01;;;;;;;3.00;1.80;;;;;;;3.29;59.50;93374.53;4948317;28;20275;-74
2021/12/12 11:19:54;;;;;;;1.85;1.75;;;;;;;3.20;60.02;93392.78;4941552;28;20046;-74
2021/12/12 11:22:41;;;;;;;3.20;2.47;;;;;;;3.39;60.68;93396.25;4940897;28;20061;-74
2021/12/12 11:25:09;;;;;;;6.15;2.85;;;;;;;3.43;60.55;93395.72;4949423;28;20556;-74
2021/12/12 11:28:04;;;;;;;3.55;2.53;;;;;;;3.45;60.70;93388.31;4951720;28;20436;-75
2021/12/12 11:30:36;;;;;;;8.15;2.72;;;;;;;3.46;60.31;93395.16;4928808;28;20069;-74
2021/12/12 11:33:05;;;;;;;2.67;2.47;;;;;;;3.19;60.87;93374.66;4936654;28;20088;-74
2021/12/12 11:35:32;;;;;;;2.65;2.42;;;;;;;3.04;61.53;93372.19;4949525;28;20110;-73
2021/12/12 11:38:17;;;;;;;6.28;4.53;;;;;;;2.92;61.90;93367.28;4951424;28;20031;-74
2021/12/12 11:40:52;;;;;;;7.20;4.00;;;;;;;3.23;61.96;93392.22;4951250;28;20506;-74
2021/12/12 11:43:37;;;;;;;;;;;;;;;3.25;62.14;93400.59;4935997;28;20106;-74
2021/12/12 11:46:33;;;;;;;4.90;3.63;;;;;;;2.82;61.66;93346.34;4920805;28;20237;-73
2021/12/12 11:49:43;;;;;;;5.25;3.50;;;;;;;2.97;61.65;93393.50;4955586;28;20047;-74
2021/12/12 11:52:15;;;;;;;4.03;3.17;;;;;;;2.78;61.77;93375.00;4930255;28;20094;-74
2021/12/12 11:54:54;;;;;;;9.25;4.25;;;;;;;2.88;62.52;93395.16;4951029;28;20042;-74
2021/12/12 11:57:27;;;;;;;3.75;3.10;;;;;;;2.85;62.51;93398.31;4930757;28;20081;-75
2021/12/12 12:00:14;;;;;;;4.63;2.67;;;;;;;2.67;62.84;93394.53;4951123;28;20089;-75
2021/12/12 12:02:50;;;;;;;4.55;3.85;;;;;;;2.59;63.19;93408.25;4948565;28;20058;-74
2021/12/12 12:05:47;;;;;;;4.10;2.95;;;;;;;2.52;63.62;93410.38;4951933;28;20129;-74
2021/12/12 12:08:37;;;;;;;9.75;5.97;;;;;;;2.53;63.66;93409.31;4953327;28;20027;-74
2021/12/12 12:11:22;;;;;;;4.75;3.50;;;;;;;2.43;63.79;93391.00;4956244;28;20042;-74
2021/12/12 12:13:50;;;;;;;;;;;;;;;2.50;64.05;93415.88;4954105;28;20046;-73
2021/12/12 12:16:28;;;;;;;3.60;3.10;;;;;;;2.24;63.55;93409.22;4961120;28;19925;-74
2021/12/12 12:19:13;;;;;;;3.22;2.90;;;;;;;2.11;64.27;93420.28;4953044;28;20542;-75
2021/12/12 12:22:03;;;;;;;4.65;2.92;;;;;;;1.79;65.05;93419.88;4961905;28;20095;-73
2021/12/12 12:24:42;;;;;;;2.88;2.58;;;;;;;1.65;66.22;93430.94;4962101;28;20050;-74